Time;durP1;ratioP1;P1;durP2;ratioP2;P2;SDS_P1;SDS_P2;PMS_P1;PMS_P2;Temp;Humidity;BMP_temperature;BMP_pressure;BME280_temperature;BME280_humidity;BME280_pressure;Samples;Min_cycle;Max_cycle;Signal;HPM_P1;HPM_P2
2024/01/08 00:02:22;;;;;;;10.90;10.02;;;;;;;;;;5098275;28;20754;-64
2024/01/08 00:04:48;;;;;;;13.80;11.13;;;;;;;;;;5092947;28;20212;-65
2024/01/08 00:07:15;;;;;;;11.15;10.15;;;;;;;;;;5103993;28;20276;-65
2024/01/08 00:09:43;;;;;;;11.18;10.02;;;;;;;;;;5100630;28;20265;-65
2024/01/08 00:12:09;;;;;;;10.82;9.70;;;;;;;;;;5097175;28;20286;-64
2024/01/08 00:14:35;;;;;;;10.10;9.30;;;;;;;;;;5090927;28;20232;-67
2024/01/08 00:17:02;;;;;;;12.20;10.70;;;;;;;;;;5097236;28;20539;-64
2024/01/08 00:19:28;;;;;;;10.00;9.00;;;;;;;;;;5096163;28;20505;-64
2024/01/08 00:21:55;;;;;;;10.20;9.30;;;;;;;;;;5100798;28;20281;-64
2024/01/08 00:24:21;;;;;;;10.20;9.27;;;;;;;;;;5095837;28;20204;-64
2024/01/08 00:26:49;;;;;;;12.00;10.15;;;;;;;;;;5092007;28;20285;-64
2024/01/08 00:29:15;;;;;;;10.43;9.40;;;;;;;;;;5099948;28;20294;-65
2024/01/08 00:31:43;;;;;;;12.38;11.07;;;;;;;;;;5106040;28;20320;-65
2024/01/08 00:34:10;;;;;;;10.60;9.60;;;;;;;;;;5089615;28;20241;-64
2024/01/08 00:36:36;;;;;;;11.30;9.25;;;;;;;;;;5091794;28;20297;-65
2024/01/08 00:39:03;;;;;;;14.35;9.82;;;;;;;;;;5098127;28;20315;-65
2024/01/08 00:41:30;;;;;;;10.90;9.77;;;;;;;;;;5093373;28;20696;-65
2024/01/08 00:44:00;;;;;;;10.35;9.35;;;;;;;;;;5091288;28;20229;-64
2024/01/08 00:46:27;;;;;;;9.10;8.27;;;;;;;;;;5089211;28;20237;-65
2024/01/08 00:48:54;;;;;;;9.45;8.55;;;;;;;;;;5098585;28;20268;-64
2024/01/08 00:51:23;;;;;;;10.18;8.45;;;;;;;;;;5094258;28;20227;-64
2024/01/08 00:53:49;;;;;;;10.20;8.63;;;;;;;;;;5094810;28;20197;-64
2024/01/08 00:56:16;;;;;;;9.52;8.25;;;;;;;;;;5095744;28;20650;-64
2024/01/08 00:58:43;;;;;;;11.02;9.27;;;;;;;;;;5089622;28;20232;-65
2024/01/08 01:01:11;;;;;;;13.90;9.02;;;;;;;;;;5092828;28;20202;-65
2024/01/08 01:03:37;;;;;;;11.55;8.73;;;;;;;;;;5096391;28;20248;-65
2024/01/08 01:06:04;;;;;;;10.45;8.73;;;;;;;;;;5098110;28;20201;-66
2024/01/08 01:08:30;;;;;;;12.95;10.90;;;;;;;;;;5088948;28;20237;-65
2024/01/08 01:10:56;;;;;;;10.35;8.02;;;;;;;;;;5092441;28;20267;-65
2024/01/08 01:13:23;;;;;;;11.23;8.63;;;;;;;;;;5089773;28;20265;-65
2024/01/08 01:15:49;;;;;;;13.57;10.25;;;;;;;;;;5101967;28;20230;-65
2024/01/08 01:18:17;;;;;;;12.48;9.63;;;;;;;;;;5090809;28;20309;-65
2024/01/08 01:20:44;;;;;;;11.23;9.20;;;;;;;;;;5094880;28;20205;-65
2024/01/08 01:23:10;;;;;;;13.52;9.80;;;;;;;;;;5089555;28;20244;-65
2024/01/08 01:25:37;;;;;;;10.73;9.00;;;;;;;;;;5097284;28;20260;-66
2024/01/08 01:28:04;;;;;;;13.85;9.00;;;;;;;;;;5097264;28;20197;-65
2024/01/08 01:30:31;;;;;;;11.13;9.63;;;;;;;;;;5086493;28;20216;-65
2024/01/08 01:32:57;;;;;;;10.98;9.82;;;;;;;;;;5096994;28;20266;-65
2024/01/08 01:35:25;;;;;;;10.43;8.80;;;;;;;;;;5094722;28;20233;-65
2024/01/08 01:37:51;;;;;;;11.10;10.00;;;;;;;;;;5099918;28;20964;-66
2024/01/08 01:40:18;;;;;;;14.45;9.95;;;;;;;;;;5096289;28;20197;-65
2024/01/08 01:42:44;;;;;;;11.73;9.98;;;;;;;;;;5095155;28;20215;-66
2024/01/08 01:45:11;;;;;;;13.18;10.02;;;;;;;;;;5093685;28;20274;-65
2024/01/08 01:47:38;;;;;;;12.95;9.23;;;;;;;;;;5098167;28;21086;-66
2024/01/08 01:50:06;;;;;;;13.80;9.95;;;;;;;;;;5098993;28;20244;-65
2024/01/08 01:52:33;;;;;;;13.63;11.68;;;;;;;;;;5097091;28;20336;-65
2024/01/08 01:55:01;;;;;;;14.93;11.10;;;;;;;;;;5085144;28;20276;-65
2024/01/08 01:57:27;;;;;;;13.20;11.85;;;;;;;;;;5100211;28;20212;-65
2024/01/08 01:59:53;;;;;;;11.63;10.38;;;;;;;;;;5097902;28;20221;-65
2024/01/08 02:02:21;;;;;;;15.77;11.15;;;;;;;;;;5095582;28;20286;-65
2024/01/08 02:04:48;;;;;;;13.57;10.90;;;;;;;;;;5089628;28;20213;-65
2024/01/08 02:07:14;;;;;;;11.70;10.48;;;;;;;;;;5089644;28;20498;-65
2024/01/08 02:09:42;;;;;;;15.73;11.85;;;;;;;;;;5094631;28;20809;-65
2024/01/08 02:12:10;;;;;;;14.63;11.30;;;;;;;;;;5095912;28;20212;-65
2024/01/08 02:14:36;;;;;;;14.13;10.80;;;;;;;;;;5086239;28;20223;-65
2024/01/08 02:17:02;;;;;;;15.00;11.85;;;;;;;;;;5091885;28;20229;-65
2024/01/08 02:19:29;;;;;;;12.27;10.20;;;;;;;;;;5087185;28;20221;-65
2024/01/08 02:21:55;;;;;;;15.32;11.60;;;;;;;;;;5100743;28;21123;-65
2024/01/08 02:24:23;;;;;;;13.27;10.32;;;;;;;;;;5092792;28;20292;-65
2024/01/08 02:26:49;;;;;;;14.65;10.73;;;;;;;;;;5092545;28;20278;-65
2024/01/08 02:29:17;;;;;;;18.17;11.90;;;;;;;;;;5092735;28;20288;-65
2024/01/08 02:31:43;;;;;;;15.02;10.57;;;;;;;;;;5094566;28;20295;-65
2024/01/08 02:34:09;;;;;;;18.05;12.27;;;;;;;;;;5102706;28;20224;-64
2024/01/08 02:36:36;;;;;;;13.18;10.35;;;;;;;;;;5091381;28;20324;-65
2024/01/08 02:39:02;;;;;;;17.90;11.00;;;;;;;;;;5102558;28;20239;-66
2024/01/08 02:41:30;;;;;;;13.98;10.50;;;;;;;;;;5090349;28;20213;-65
2024/01/08 02:43:56;;;;;;;12.20;10.90;;;;;;;;;;5095166;28;20240;-64
2024/01/08 02:46:23;;;;;;;16.70;11.10;;;;;;;;;;5103493;28;20720;-65
2024/01/08 02:48:49;;;;;;;12.65;9.73;;;;;;;;;;5097263;28;20244;-65
2024/01/08 02:51:16;;;;;;;15.85;10.32;;;;;;;;;;5097911;28;20269;-65
2024/01/08 02:53:42;;;;;;;15.52;10.02;;;;;;;;;;5091549;28;20209;-65
2024/01/08 02:56:18;;;;;;;18.40;10.57;;;;;;;;;;5095732;28;20299;-65
2024/01/08 02:58:45;;;;;;;12.20;10.85;;;;;;;;;;5092057;28;20315;-64
2024/01/08 03:01:12;;;;;;;13.48;10.32;;;;;;;;;;5100249;28;20304;-64
2024/01/08 03:03:38;;;;;;;14.93;11.55;;;;;;;;;;5098124;28;20315;-64
2024/01/08 03:06:04;;;;;;;13.23;10.75;;;;;;;;;;5099197;28;20302;-65
2024/01/08 03:08:31;;;;;;;15.43;10.80;;;;;;;;;;5101793;28;20330;-65
2024/01/08 03:10:57;;;;;;;12.35;9.88;;;;;;;;;;5102432;28;20268;-65
2024/01/08 03:13:24;;;;;;;14.70;10.80;;;;;;;;;;5099900;28;20235;-65
2024/01/08 03:15:51;;;;;;;14.00;9.98;;;;;;;;;;5090121;28;20328;-64
2024/01/08 03:18:18;;;;;;;15.18;11.50;;;;;;;;;;5099357;28;20584;-65
2024/01/08 03:20:44;;;;;;;15.05;10.60;;;;;;;;;;5101816;28;20327;-65
2024/01/08 03:23:11;;;;;;;11.68;10.52;;;;;;;;;;5094511;28;20282;-65
2024/01/08 03:25:37;;;;;;;15.32;10.52;;;;;;;;;;5096733;28;20828;-65
2024/01/08 03:28:04;;;;;;;11.82;10.65;;;;;;;;;;5094798;28;20284;-64
2024/01/08 03:30:30;;;;;;;14.48;10.60;;;;;;;;;;5091568;28;20198;-65
2024/01/08 03:32:58;;;;;;;16.08;10.27;;;;;;;;;;5102253;28;20205;-65
2024/01/08 03:35:24;;;;;;;13.80;10.90;;;;;;;;;;5094713;28;20240;-64
2024/01/08 03:37:51;;;;;;;12.90;10.20;;;;;;;;;;5098126;28;20304;-65
2024/01/08 03:40:17;;;;;;;12.00;10.48;;;;;;;;;;5094249;28;20677;-65
2024/01/08 03:42:44;;;;;;;15.02;11.52;;;;;;;;;;5091698;28;20292;-65
2024/01/08 03:45:10;;;;;;;11.52;9.15;;;;;;;;;;5098389;28;20221;-65
2024/01/08 03:47:39;;;;;;;10.65;9.15;;;;;;;;;;5090884;28;20220;-64
2024/01/08 03:50:08;;;;;;;17.20;11.23;;;;;;;;;;5096908;28;20693;-65
2024/01/08 03:52:35;;;;;;;16.58;10.43;;;;;;;;;;5096837;28;20240;-65
2024/01/08 03:55:01;;;;;;;12.98;10.25;;;;;;;;;;5091024;28;20248;-65
2024/01/08 03:57:27;;;;;;;14.40;10.63;;;;;;;;;;5091806;28;20286;-64
2024/01/08 03:59:54;;;;;;;14.10;10.80;;;;;;;;;;5100062;28;20481;-64
2024/01/08 04:02:20;;;;;;;11.43;10.03;;;;;;;;;;5094101;28;20202;-65
2024/01/08 04:04:47;;;;;;;11.57;10.23;;;;;;;;;;5095715;28;20456;-65
2024/01/08 04:07:15;;;;;;;11.68;9.82;;;;;;;;;;5101461;28;20247;-65
2024/01/08 04:09:41;;;;;;;9.95;9.05;;;;;;;;;;5092810;28;20257;-64
2024/01/08 04:12:08;;;;;;;11.55;10.48;;;;;;;;;;5096938;28;20212;-66
2024/01/08 04:14:34;;;;;;;10.10;9.20;;;;;;;;;;5092644;28;20209;-65
2024/01/08 04:17:00;;;;;;;12.02;9.52;;;;;;;;;;5097713;28;20753;-65
2024/01/08 04:19:27;;;;;;;10.05;9.15;;;;;;;;;;5095705;28;20292;-65
2024/01/08 04:21:53;;;;;;;9.45;8.55;;;;;;;;;;5097752;28;20239;-65
2024/01/08 04:24:21;;;;;;;11.13;8.98;;;;;;;;;;5087871;28;20205;-65
2024/01/08 04:26:47;;;;;;;9.70;8.80;;;;;;;;;;5095466;28;20240;-65
2024/01/08 04:29:14;;;;;;;10.70;9.80;;;;;;;;;;5093368;28;20296;-65
2024/01/08 04:31:40;;;;;;;9.75;8.73;;;;;;;;;;5096100;28;20224;-65
2024/01/08 04:34:06;;;;;;;10.70;9.55;;;;;;;;;;5098125;28;20278;-65
2024/01/08 04:36:33;;;;;;;10.40;9.02;;;;;;;;;;5091043;28;20247;-65
2024/01/08 04:38:59;;;;;;;10.13;8.95;;;;;;;;;;5095646;28;20235;-65
2024/01/08 04:41:27;;;;;;;10.23;9.43;;;;;;;;;;5098045;28;20332;-66
2024/01/08 04:43:53;;;;;;;10.38;9.35;;;;;;;;;;5099477;28;20299;-66
2024/01/08 04:46:20;;;;;;;11.93;10.23;;;;;;;;;;5104815;28;20240;-65
2024/01/08 04:48:46;;;;;;;10.52;9.38;;;;;;;;;;5090695;28;20505;-65
2024/01/08 04:51:20;;;;;;;14.13;10.00;;;;;;;;;;5096393;28;20244;-65
2024/01/08 04:53:46;;;;;;;9.43;8.45;;;;;;;;;;5095795;28;20277;-65
2024/01/08 04:56:19;;;;;;;16.70;9.73;;;;;;;;;;5086570;28;20209;-65
2024/01/08 04:58:47;;;;;;;11.40;10.02;;;;;;;;;;5101962;28;20231;-65
2024/01/08 05:01:13;;;;;;;13.25;9.88;;;;;;;;;;5100219;28;20205;-65
2024/01/08 05:03:40;;;;;;;10.25;8.80;;;;;;;;;;5094067;28;20300;-65
2024/01/08 05:06:06;;;;;;;11.27;10.10;;;;;;;;;;5093286;28;20293;-65
2024/01/08 05:08:32;;;;;;;10.65;9.63;;;;;;;;;;5091143;28;21142;-64
2024/01/08 05:10:59;;;;;;;10.10;9.02;;;;;;;;;;5095242;28;20205;-65
2024/01/08 05:13:26;;;;;;;9.32;8.43;;;;;;;;;;5093798;28;20651;-65
2024/01/08 05:15:53;;;;;;;12.40;9.73;;;;;;;;;;5088831;28;20217;-65
2024/01/08 05:18:20;;;;;;;10.38;9.30;;;;;;;;;;5098556;28;20217;-65
2024/01/08 05:20:46;;;;;;;9.50;8.63;;;;;;;;;;5095285;28;20308;-65
2024/01/08 05:23:12;;;;;;;11.07;9.00;;;;;;;;;;5091070;28;20231;-65
2024/01/08 05:25:39;;;;;;;9.40;8.30;;;;;;;;;;5091922;28;20200;-65
2024/01/08 05:28:06;;;;;;;10.18;9.00;;;;;;;;;;5089519;28;20451;-65
2024/01/08 05:30:32;;;;;;;8.60;7.68;;;;;;;;;;5090159;28;20193;-65
2024/01/08 05:33:00;;;;;;;8.48;7.68;;;;;;;;;;5090744;28;20281;-65
2024/01/08 05:35:27;;;;;;;9.77;8.77;;;;;;;;;;5088740;28;20225;-65
2024/01/08 05:37:53;;;;;;;12.75;9.05;;;;;;;;;;5089977;28;20228;-65
2024/01/08 05:40:19;;;;;;;9.57;8.65;;;;;;;;;;5089199;28;20248;-65
2024/01/08 05:42:46;;;;;;;9.90;8.82;;;;;;;;;;5089231;28;20248;-66
2024/01/08 05:45:12;;;;;;;10.02;8.45;;;;;;;;;;5094306;28;20205;-65
2024/01/08 05:47:39;;;;;;;10.27;8.35;;;;;;;;;;5091566;28;20751;-65
2024/01/08 05:50:07;;;;;;;12.32;9.20;;;;;;;;;;5098902;28;20702;-65
2024/01/08 05:52:33;;;;;;;10.43;9.50;;;;;;;;;;5093461;28;20236;-65
2024/01/08 05:54:59;;;;;;;13.05;11.02;;;;;;;;;;5093978;28;20244;-65
2024/01/08 05:57:26;;;;;;;15.65;10.48;;;;;;;;;;5089218;28;20640;-65
2024/01/08 05:59:52;;;;;;;9.85;8.32;;;;;;;;;;5099910;28;20259;-65
2024/01/08 06:02:19;;;;;;;11.77;10.55;;;;;;;;;;5093496;28;20242;-65
2024/01/08 06:04:45;;;;;;;10.75;9.48;;;;;;;;;;5096144;28;20236;-65
2024/01/08 06:07:13;;;;;;;13.25;10.95;;;;;;;;;;5090490;28;20235;-65
2024/01/08 06:09:39;;;;;;;9.90;8.80;;;;;;;;;;5092770;28;20294;-65
2024/01/08 06:12:06;;;;;;;11.32;10.20;;;;;;;;;;5089109;28;20241;-65
2024/01/08 06:14:32;;;;;;;9.48;8.57;;;;;;;;;;5095822;28;20201;-65
2024/01/08 06:16:58;;;;;;;9.07;8.27;;;;;;;;;;5093835;28;20303;-65
2024/01/08 06:19:25;;;;;;;9.93;9.13;;;;;;;;;;5093395;28;20712;-65
2024/01/08 06:21:51;;;;;;;8.70;7.90;;;;;;;;;;5096070;28;20265;-65
2024/01/08 06:24:19;;;;;;;11.93;8.48;;;;;;;;;;5090474;28;20240;-64
2024/01/08 06:26:45;;;;;;;8.20;7.40;;;;;;;;;;5093064;28;20280;-64
2024/01/08 06:29:12;;;;;;;9.30;8.35;;;;;;;;;;5094776;28;20266;-64
2024/01/08 06:31:39;;;;;;;9.82;9.05;;;;;;;;;;5091748;28;20197;-65
2024/01/08 06:34:06;;;;;;;9.77;8.80;;;;;;;;;;5094668;28;20209;-65
2024/01/08 06:36:34;;;;;;;9.02;8.32;;;;;;;;;;5092154;28;20275;-64
2024/01/08 06:39:00;;;;;;;9.30;8.68;;;;;;;;;;5092403;28;20309;-65
2024/01/08 06:41:28;;;;;;;9.40;8.70;;;;;;;;;;5089564;28;20267;-64
2024/01/08 06:43:54;;;;;;;9.55;8.85;;;;;;;;;;5096904;28;20696;-65
2024/01/08 06:46:21;;;;;;;8.65;7.93;;;;;;;;;;5089340;28;20225;-65
2024/01/08 06:48:47;;;;;;;9.80;9.00;;;;;;;;;;5097877;28;20248;-65
2024/01/08 06:51:14;;;;;;;9.43;8.65;;;;;;;;;;5090180;28;20628;-65
2024/01/08 06:53:40;;;;;;;9.02;8.43;;;;;;;;;;5096264;28;20205;-69
2024/01/08 06:56:07;;;;;;;10.20;9.50;;;;;;;;;;5090658;28;20264;-67
2024/01/08 06:58:34;;;;;;;9.48;8.77;;;;;;;;;;5099104;28;20209;-65
2024/01/08 07:01:01;;;;;;;10.25;9.45;;;;;;;;;;5096955;28;20709;-65
2024/01/08 07:03:27;;;;;;;9.60;9.00;;;;;;;;;;5097499;28;20273;-67
2024/01/08 07:05:54;;;;;;;10.60;9.88;;;;;;;;;;5091197;28;20311;-66
2024/01/08 07:08:20;;;;;;;9.65;9.05;;;;;;;;;;5100570;28;20228;-67
2024/01/08 07:10:47;;;;;;;9.82;9.10;;;;;;;;;;5104036;28;20235;-65
2024/01/08 07:13:15;;;;;;;10.57;9.98;;;;;;;;;;5094845;28;20576;-65
2024/01/08 07:15:45;;;;;;;9.77;9.20;;;;;;;;;;5101909;28;20224;-65
2024/01/08 07:18:12;;;;;;;9.05;8.55;;;;;;;;;;5091076;28;20235;-66
2024/01/08 07:20:38;;;;;;;9.90;9.30;;;;;;;;;;5100197;28;20280;-69
2024/01/08 07:23:05;;;;;;;10.00;9.20;;;;;;;;;;5094490;28;20205;-68
2024/01/08 07:25:32;;;;;;;10.00;9.40;;;;;;;;;;5094611;28;20209;-70
2024/01/08 07:27:59;;;;;;;9.45;8.85;;;;;;;;;;5096325;28;20327;-69
2024/01/08 07:30:25;;;;;;;10.43;9.65;;;;;;;;;;5091882;28;20300;-69
2024/01/08 07:32:53;;;;;;;10.20;9.60;;;;;;;;;;5092622;28;20208;-68
2024/01/08 07:35:20;;;;;;;9.30;8.80;;;;;;;;;;5103599;28;20227;-66
2024/01/08 07:37:47;;;;;;;10.40;9.70;;;;;;;;;;5104848;28;20695;-67
2024/01/08 07:40:14;;;;;;;10.90;10.20;;;;;;;;;;5090556;28;20228;-67
2024/01/08 07:42:40;;;;;;;12.70;11.63;;;;;;;;;;5098244;28;20209;-67
2024/01/08 07:45:07;;;;;;;11.38;10.50;;;;;;;;;;5098046;28;20201;-67
2024/01/08 07:47:33;;;;;;;10.50;9.90;;;;;;;;;;5107340;28;20216;-68
2024/01/08 07:50:02;;;;;;;10.25;9.75;;;;;;;;;;5095529;28;20213;-67
2024/01/08 07:52:29;;;;;;;10.88;10.18;;;;;;;;;;5099151;28;20212;-66
2024/01/08 07:54:56;;;;;;;11.30;10.48;;;;;;;;;;5103686;28;20236;-67
2024/01/08 07:57:22;;;;;;;11.00;10.00;;;;;;;;;;5098813;28;20225;-67
2024/01/08 07:59:49;;;;;;;9.68;9.07;;;;;;;;;;5098746;28;20250;-69
2024/01/08 08:02:15;;;;;;;11.23;10.52;;;;;;;;;;5100687;28;20233;-66
2024/01/08 08:04:41;;;;;;;10.90;10.10;;;;;;;;;;5089657;28;20646;-70
2024/01/08 08:07:09;;;;;;;10.05;9.38;;;;;;;;;;5091263;28;20209;-67
2024/01/08 08:09:36;;;;;;;10.05;9.45;;;;;;;;;;5098072;28;20209;-66
2024/01/08 08:12:02;;;;;;;9.95;9.40;;;;;;;;;;5098656;28;20680;-69
2024/01/08 08:14:29;;;;;;;10.57;9.88;;;;;;;;;;5095783;28;20581;-67
2024/01/08 08:16:55;;;;;;;9.10;8.60;;;;;;;;;;5106762;28;20209;-66
2024/01/08 08:19:22;;;;;;;10.30;9.75;;;;;;;;;;5111159;28;20219;-68
2024/01/08 08:21:48;;;;;;;11.27;10.48;;;;;;;;;;5100875;28;20229;-73
2024/01/08 08:24:16;;;;;;;10.93;10.23;;;;;;;;;;5096050;28;20240;-70
2024/01/08 08:26:42;;;;;;;10.07;9.48;;;;;;;;;;5091496;28;20248;-69
2024/01/08 08:29:09;;;;;;;12.15;10.75;;;;;;;;;;5100360;28;20296;-70
2024/01/08 08:31:35;;;;;;;10.70;10.10;;;;;;;;;;5099699;28;20205;-68
2024/01/08 08:34:02;;;;;;;11.20;10.60;;;;;;;;;;5095302;28;20205;-67
2024/01/08 08:36:28;;;;;;;10.15;9.55;;;;;;;;;;5112646;28;20294;-68
2024/01/08 08:38:56;;;;;;;12.35;11.40;;;;;;;;;;5110642;28;20213;-69
2024/01/08 08:41:24;;;;;;;16.58;15.38;;;;;;;;;;5101085;28;20227;-66
2024/01/08 08:43:50;;;;;;;16.25;15.25;;;;;;;;;;5097671;28;20231;-68
2024/01/08 08:46:16;;;;;;;14.40;13.55;;;;;;;;;;5095341;28;20299;-69
2024/01/08 08:48:43;;;;;;;8.65;8.15;;;;;;;;;;5104373;28;20213;-69
2024/01/08 08:51:09;;;;;;;9.82;9.30;;;;;;;;;;5100241;28;20197;-67
2024/01/08 08:53:37;;;;;;;9.20;8.60;;;;;;;;;;5098716;28;20208;-67
2024/01/08 08:56:04;;;;;;;13.77;12.98;;;;;;;;;;5100311;28;20213;-66
2024/01/08 08:58:32;;;;;;;15.55;14.65;;;;;;;;;;5107210;28;20208;-70
2024/01/08 09:00:58;;;;;;;14.65;13.85;;;;;;;;;;5101234;28;20344;-69
2024/01/08 09:03:25;;;;;;;15.25;14.35;;;;;;;;;;5101739;28;20633;-71
2024/01/08 09:05:52;;;;;;;14.80;13.80;;;;;;;;;;5095063;28;20209;-68
2024/01/08 09:08:18;;;;;;;15.07;14.23;;;;;;;;;;5102479;28;20201;-66
2024/01/08 09:10:45;;;;;;;11.00;10.25;;;;;;;;;;5102625;28;20192;-69
2024/01/08 09:13:12;;;;;;;11.25;10.55;;;;;;;;;;5088583;28;20210;-68
2024/01/08 09:15:39;;;;;;;11.52;10.73;;;;;;;;;;5095430;28;20227;-71
2024/01/08 09:18:06;;;;;;;10.80;10.30;;;;;;;;;;5094461;28;20256;-71
2024/01/08 09:20:33;;;;;;;10.03;9.30;;;;;;;;;;5103663;28;20246;-68
2024/01/08 09:23:00;;;;;;;10.38;9.60;;;;;;;;;;5088203;28;20463;-71
2024/01/08 09:25:26;;;;;;;9.50;9.00;;;;;;;;;;5099143;28;20208;-73
2024/01/08 09:27:52;;;;;;;11.32;10.63;;;;;;;;;;5100749;28;20217;-74
2024/01/08 09:30:19;;;;;;;11.17;10.47;;;;;;;;;;5100280;28;20241;-73
2024/01/08 09:32:47;;;;;;;10.65;10.05;;;;;;;;;;5103373;28;21351;-73
2024/01/08 09:35:14;;;;;;;11.15;10.35;;;;;;;;;;5101570;28;20212;-75
2024/01/08 09:37:40;;;;;;;9.82;9.02;;;;;;;;;;5102414;28;20217;-69
2024/01/08 09:40:07;;;;;;;9.80;9.25;;;;;;;;;;5093235;28;20247;-68
2024/01/08 09:42:35;;;;;;;11.65;10.95;;;;;;;;;;5096426;28;20310;-70
2024/01/08 09:45:02;;;;;;;10.23;9.63;;;;;;;;;;5101051;28;20209;-70
2024/01/08 09:47:29;;;;;;;11.17;10.40;;;;;;;;;;5096248;28;20896;-71
2024/01/08 09:49:57;;;;;;;10.73;10.13;;;;;;;;;;5097838;28;20459;-69
2024/01/08 09:52:24;;;;;;;10.00;9.50;;;;;;;;;;5104252;28;20527;-68
2024/01/08 09:54:50;;;;;;;10.20;9.70;;;;;;;;;;5099877;28;20487;-72
2024/01/08 09:57:17;;;;;;;10.30;9.70;;;;;;;;;;5098349;28;20237;-71
2024/01/08 09:59:44;;;;;;;10.00;9.50;;;;;;;;;;5098680;28;20254;-72
2024/01/08 10:02:15;;;;;;;9.68;9.07;;;;;;;;;;5104168;28;20232;-69
2024/01/08 10:04:42;;;;;;;10.13;9.55;;;;;;;;;;5109335;28;20205;-69
2024/01/08 10:07:12;;;;;;;10.35;9.85;;;;;;;;;;5098750;28;20622;-72
2024/01/08 10:09:38;;;;;;;11.03;10.40;;;;;;;;;;5108613;28;20212;-70
2024/01/08 10:12:07;;;;;;;9.93;9.43;;;;;;;;;;5101980;28;21119;-72
2024/01/08 10:14:33;;;;;;;9.67;9.17;;;;;;;;;;5094198;28;20461;-72
2024/01/08 10:17:00;;;;;;;14.60;13.80;;;;;;;;;;5106244;28;20486;-67
2024/01/08 10:19:27;;;;;;;16.50;15.40;;;;;;;;;;5097213;28;20270;-68
2024/01/08 10:22:06;;;;;;;16.77;15.67;;;;;;;;;;5094053;28;20475;-68
2024/01/08 10:24:35;;;;;;;16.20;15.33;;;;;;;;;;5101875;28;20498;-69
2024/01/08 10:27:01;;;;;;;17.30;16.20;;;;;;;;;;5097679;28;20451;-67
2024/01/08 10:29:28;;;;;;;16.90;15.80;;;;;;;;;;5094790;28;20450;-69
2024/01/08 10:31:54;;;;;;;16.97;16.03;;;;;;;;;;5093440;28;20482;-67
2024/01/08 10:34:21;;;;;;;17.10;15.90;;;;;;;;;;5105397;28;20446;-67
2024/01/08 10:36:48;;;;;;;17.17;16.20;;;;;;;;;;5094003;28;20526;-68
2024/01/08 10:39:15;;;;;;;16.73;15.77;;;;;;;;;;5096705;28;20459;-69
2024/01/08 10:41:43;;;;;;;16.50;15.50;;;;;;;;;;5086235;28;20486;-71
2024/01/08 10:44:09;;;;;;;16.70;15.80;;;;;;;;;;5099275;28;20477;-70
2024/01/08 10:46:39;;;;;;;16.20;15.30;;;;;;;;;;5106470;28;20677;-69
2024/01/08 10:49:07;;;;;;;15.70;14.35;;;;;;;;;;5095913;28;20475;-73
2024/01/08 10:51:37;;;;;;;15.88;15.07;;;;;;;;;;5102408;28;20192;-69
2024/01/08 10:54:04;;;;;;;16.33;15.23;;;;;;;;;;5089887;28;20262;-66
2024/01/08 10:56:32;;;;;;;15.40;14.60;;;;;;;;;;5100414;28;20509;-70
2024/01/08 10:59:01;;;;;;;16.15;15.25;;;;;;;;;;5104437;28;20459;-69
2024/01/08 11:01:29;;;;;;;35.23;16.27;;;;;;;;;;5100776;28;20730;-70
2024/01/08 11:03:56;;;;;;;17.07;15.97;;;;;;;;;;5106839;28;20481;-68
2024/01/08 11:06:22;;;;;;;16.20;15.25;;;;;;;;;;5099741;28;20915;-67
2024/01/08 11:08:50;;;;;;;16.15;15.25;;;;;;;;;;5097086;28;20729;-66
2024/01/08 11:11:18;;;;;;;15.93;14.93;;;;;;;;;;5085458;28;20244;-65
2024/01/08 11:13:44;;;;;;;15.85;14.95;;;;;;;;;;5102284;28;20276;-69
2024/01/08 11:16:14;;;;;;;15.13;14.23;;;;;;;;;;5098197;28;20198;-67
2024/01/08 11:18:40;;;;;;;15.02;14.20;;;;;;;;;;5094886;28;20295;-66
2024/01/08 11:21:07;;;;;;;16.53;15.53;;;;;;;;;;5094604;28;20731;-66
2024/01/08 11:23:35;;;;;;;16.20;15.20;;;;;;;;;;5104125;28;20447;-66
2024/01/08 11:26:02;;;;;;;17.53;16.30;;;;;;;;;;5096909;28;20904;-66
2024/01/08 11:28:29;;;;;;;15.57;14.67;;;;;;;;;;5092392;28;20486;-66
2024/01/08 11:31:05;;;;;;;16.00;15.10;;;;;;;;;;5093168;28;20491;-71
2024/01/08 11:33:38;;;;;;;13.50;12.73;;;;;;;;;;5093240;28;20453;-71
2024/01/08 11:36:13;;;;;;;14.47;13.77;;;;;;;;;;5096890;28;20498;-71
2024/01/08 11:38:41;;;;;;;15.10;14.30;;;;;;;;;;5093667;28;20448;-67
2024/01/08 11:41:07;;;;;;;15.23;14.33;;;;;;;;;;5101597;28;20439;-74
2024/01/08 11:43:34;;;;;;;14.83;14.03;;;;;;;;;;5104412;28;20464;-71
2024/01/08 11:46:02;;;;;;;15.37;14.37;;;;;;;;;;5107819;28;20484;-69
2024/01/08 11:48:29;;;;;;;15.80;14.90;;;;;;;;;;5102375;28;20502;-68
2024/01/08 11:50:58;;;;;;;15.73;14.83;;;;;;;;;;5098685;28;20670;-74
2024/01/08 11:53:24;;;;;;;16.33;15.43;;;;;;;;;;5095326;28;20531;-77
2024/01/08 11:55:52;;;;;;;16.40;15.40;;;;;;;;;;5098494;28;20681;-71
2024/01/08 11:58:18;;;;;;;15.63;14.83;;;;;;;;;;5105325;28;21025;-70
2024/01/08 12:00:44;;;;;;;8.43;7.93;;;;;;;;;;5102053;28;20487;-67
2024/01/08 12:03:11;;;;;;;9.37;8.67;;;;;;;;;;5096597;28;20502;-67
2024/01/08 12:05:38;;;;;;;8.00;7.40;;;;;;;;;;5096611;28;20451;-65
2024/01/08 12:08:05;;;;;;;13.43;12.73;;;;;;;;;;5104838;28;20447;-68
2024/01/08 12:10:32;;;;;;;15.53;14.70;;;;;;;;;;5100979;28;20477;-67
2024/01/08 12:12:58;;;;;;;16.57;15.57;;;;;;;;;;5099333;28;20455;-67
2024/01/08 12:15:27;;;;;;;17.00;15.90;;;;;;;;;;5105203;28;20442;-65
2024/01/08 12:17:55;;;;;;;16.40;15.50;;;;;;;;;;5105571;28;20803;-66
2024/01/08 12:20:21;;;;;;;15.38;14.38;;;;;;;;;;5097554;28;20474;-66
2024/01/08 12:22:47;;;;;;;17.37;16.00;;;;;;;;;;5098779;28;20697;-67
2024/01/08 12:25:15;;;;;;;17.20;16.10;;;;;;;;;;5102056;28;20442;-67
2024/01/08 12:27:42;;;;;;;15.37;14.47;;;;;;;;;;5103242;28;20463;-66
2024/01/08 12:30:09;;;;;;;15.73;14.83;;;;;;;;;;5102592;28;20553;-66
2024/01/08 12:32:37;;;;;;;15.43;14.60;;;;;;;;;;5096352;28;20454;-67
2024/01/08 12:35:04;;;;;;;15.85;14.95;;;;;;;;;;5098929;28;20209;-67
2024/01/08 12:37:32;;;;;;;15.27;14.37;;;;;;;;;;5090887;28;20209;-66
2024/01/08 12:39:58;;;;;;;14.10;13.30;;;;;;;;;;5103772;28;20448;-68
2024/01/08 12:42:26;;;;;;;14.52;13.73;;;;;;;;;;5100576;28;20498;-65
2024/01/08 12:44:53;;;;;;;15.48;14.38;;;;;;;;;;5097826;28;20201;-66
2024/01/08 12:47:20;;;;;;;15.50;14.50;;;;;;;;;;5104401;28;20216;-66
2024/01/08 12:49:46;;;;;;;15.77;14.83;;;;;;;;;;5103797;28;20213;-66
2024/01/08 12:52:13;;;;;;;14.50;13.52;;;;;;;;;;5095821;28;21062;-69
2024/01/08 12:54:43;;;;;;;15.55;14.50;;;;;;;;;;5104322;28;20231;-69
2024/01/08 12:57:11;;;;;;;15.25;14.35;;;;;;;;;;5110296;28;20212;-69
2024/01/08 12:59:50;;;;;;;15.75;14.85;;;;;;;;;;5107057;28;20209;-70
2024/01/08 13:02:17;;;;;;;15.38;14.45;;;;;;;;;;5093730;28;20240;-71
2024/01/08 13:04:45;;;;;;;16.02;15.13;;;;;;;;;;5108020;28;20794;-69
2024/01/08 13:07:12;;;;;;;16.60;15.60;;;;;;;;;;5094304;28;20313;-66
2024/01/08 13:09:39;;;;;;;15.95;14.95;;;;;;;;;;5100404;28;20213;-68
2024/01/08 13:12:06;;;;;;;16.02;15.13;;;;;;;;;;5103006;28;20228;-69
2024/01/08 13:14:32;;;;;;;14.73;13.82;;;;;;;;;;5101455;28;20200;-67
2024/01/08 13:17:00;;;;;;;14.52;13.70;;;;;;;;;;5099165;28;20208;-67
2024/01/08 13:19:26;;;;;;;14.93;14.13;;;;;;;;;;5099705;28;20232;-67
2024/01/08 13:21:53;;;;;;;15.65;14.55;;;;;;;;;;5106850;28;20783;-68
2024/01/08 13:24:19;;;;;;;15.00;13.95;;;;;;;;;;5097658;28;20213;-67
2024/01/08 13:26:46;;;;;;;15.25;14.35;;;;;;;;;;5097395;28;20634;-66
2024/01/08 13:29:12;;;;;;;15.65;14.70;;;;;;;;;;5093598;28;20339;-67
2024/01/08 13:31:39;;;;;;;16.42;15.45;;;;;;;;;;5095131;28;20212;-67
2024/01/08 13:34:08;;;;;;;14.85;13.40;;;;;;;;;;5098558;28;20300;-65
2024/01/08 13:36:34;;;;;;;15.18;14.10;;;;;;;;;;5083294;28;20241;-67
2024/01/08 13:39:01;;;;;;;14.57;13.68;;;;;;;;;;5077580;28;20267;-66
2024/01/08 13:41:28;;;;;;;16.27;15.18;;;;;;;;;;5076659;28;20209;-65
2024/01/08 13:43:54;;;;;;;15.48;14.40;;;;;;;;;;5088472;28;20205;-65
2024/01/08 13:46:20;;;;;;;14.60;13.70;;;;;;;;;;5094766;28;20237;-65
2024/01/08 13:48:47;;;;;;;13.80;13.10;;;;;;;;;;5092908;28;20282;-65
2024/01/08 13:51:16;;;;;;;14.27;13.45;;;;;;;;;;5105071;28;20229;-66
2024/01/08 13:53:42;;;;;;;14.23;13.43;;;;;;;;;;5088079;28;20718;-67
2024/01/08 13:56:09;;;;;;;15.57;14.57;;;;;;;;;;5087475;28;20201;-66
2024/01/08 13:58:35;;;;;;;15.55;14.65;;;;;;;;;;5097855;28;20236;-64
2024/01/08 14:01:03;;;;;;;15.35;14.45;;;;;;;;;;5095153;28;20212;-65
2024/01/08 14:03:29;;;;;;;15.00;14.10;;;;;;;;;;5090968;28;20808;-66
2024/01/08 14:05:56;;;;;;;16.08;14.98;;;;;;;;;;5090766;28;20225;-65
2024/01/08 14:08:23;;;;;;;15.77;14.82;;;;;;;;;;5110425;28;20215;-62
2024/01/08 14:10:50;;;;;;;9.43;8.70;;;;;;;;;;5090645;28;20204;-65
2024/01/08 14:13:16;;;;;;;12.10;11.30;;;;;;;;;;5089907;28;20210;-64
2024/01/08 14:15:43;;;;;;;9.45;8.85;;;;;;;;;;5094876;28;20206;-65
2024/01/08 14:18:09;;;;;;;14.32;13.52;;;;;;;;;;5101275;28;20310;-65
2024/01/08 14:20:36;;;;;;;16.60;15.60;;;;;;;;;;5092141;28;20213;-64
2024/01/08 14:23:02;;;;;;;17.05;16.00;;;;;;;;;;5095164;28;20228;-65